Latest METARs, TAFs and NOTAMs for MMPR


---------------------------------------------------------------------------
	(OBSERVATIONS)
MMPR 241250Z 00000KT 10SM  SCT020 BKN080 27/25 A2981  RMK 8/570
    HZY=
MMPR 241150Z 00000KT 10SM  BKN020 BKN070 OVC250 27/25 A2979 
    RMK SLP085 54000 964 8/577=
---------------------------------------------------------------------------
	(TERMINAL AREA FORECAST)
MMPR 241119Z 2412/2518 03005KT P6SM BKN020 TX31/2419Z
    TN25/2412Z
    FM241400 20010KT P6SM SCT020
    FM250300 03005KT P6SM BKN020
    FM251400 20008KT P6SM SCT020=
---------------------------------------------------------------------------
	(NOTAMS)


MMPR A1837/17 CD OPR FREQ 121.9 MHZ. 1500/2200 DLY, 02 APR 15:00
    2017 UNTIL 28 OCT 22:00 2017. CREATED: 31 MAR 14:21 2017

---------------------------------------------------------------------------